Chelyabinsk — UYIY — position and weather

sailwx.info

Track history (hours):
 
Tides and Currents Weather Stations Pressure Air Temp Water Temp Dewpoint Dewpoint Depression Visibility Wind Speed Wind Dir Waves Ship Positions

Chelyabinsk

Last reported at 2017-Nov-25 20:32 UTC. Time now 2018-Feb-23 18:36 UTC.
Position N 44°23' E 028°02'.
Warning: this ship's position is months out of date.

Length 57 m; draft 1.7 m.

Type: Ship. MMSI: 272028900.

Date/timePositionNaut miles runAvg speedWind from/ knotsBaromVisibWave heightAir tempDewpointWater temp
2017-Nov-25 20:32N 44°23' E 028°02'4 2.6
2017-Nov-25 19:01N 44°19' E 028°03'0 0.8
2017-Nov-25 18:54N 44°19' E 028°03'1 3.6
2017-Nov-25 18:30N 44°17' E 028°04'3 5.3
2017-Nov-25 18:00N 44°16' E 028°07'3 5.4
2017-Nov-25 17:30N 44°16' E 028°11'3 5.3
2017-Nov-25 17:01N 44°15' E 028°15'3 5.3
2017-Nov-25 16:31N 44°15' E 028°18'2 4.6
2017-Nov-25 16:01N 44°14' E 028°21'3 5.3
2017-Nov-25 15:30N 44°12' E 028°23'1 2.3
2017-Nov-25 15:00N 44°11' E 028°24'0 0.0
2017-Nov-25 14:30N 44°11' E 028°24'0 0.7
2017-Nov-25 14:00N 44°11' E 028°24'0 0.1
2017-Nov-25 13:30N 44°11' E 028°24'1 1.2
2017-Nov-25 13:00N 44°10' E 028°24'4 6.3
2017-Nov-25 12:25N 44°07' E 028°27'3 5.9
2017-Nov-25 11:57N 44°06' E 028°30'3 6.4
2017-Nov-25 11:31N 44°06' E 028°34'2 4.4
2017-Nov-25 11:00N 44°06' E 028°37'0 0.6
2017-Nov-25 10:31N 44°06' E 028°38'2 3.2
2017-Nov-25 09:59N 44°07' E 028°39'0 0.0
2017-Nov-25 09:30N 44°07' E 028°39'0 0.0
2017-Nov-25 09:00N 44°07' E 028°39'0 0.0
2017-Nov-25 08:30N 44°07' E 028°39'0 0.0
2017-Nov-25 08:00N 44°07' E 028°39'0 0.0
2017-Nov-25 07:30N 44°07' E 028°39'1 1.6
2017-Nov-25 07:00N 44°07' E 028°39'1 2.5
2017-Nov-25 06:30N 44°06' E 028°37'1 1.1
2017-Nov-25 06:00N 44°06' E 028°37'0 0.0
2017-Nov-25 05:30N 44°06' E 028°37'1 2.5
2017-Nov-25 05:00N 44°06' E 028°35'4 6.6
2017-Nov-25 04:24N 44°06' E 028°29'4 6.2
2017-Nov-25 03:45N 44°09' E 028°26'1 6.3
2017-Nov-25 03:30N 44°10' E 028°24'1 1.0
2017-Nov-25 02:58N 44°11' E 028°24'0 0.0
2017-Nov-25 02:28N 44°11' E 028°24'0 0.0
2017-Nov-25 01:58N 44°11' E 028°24'0 0.0
2017-Nov-25 01:28N 44°11' E 028°24'0 0.0
2017-Nov-25 00:58N 44°11' E 028°24'0 0.0
2017-Nov-25 00:28N 44°11' E 028°24'0 0.0
2017-Nov-24 23:58N 44°11' E 028°24'0 0.0
2017-Nov-24 23:28N 44°11' E 028°24'0 0.0
2017-Nov-24 22:58N 44°11' E 028°24'0 0.0
2017-Nov-24 22:28N 44°11' E 028°24'0 0.0
2017-Nov-24 21:58N 44°11' E 028°24'0 0.0
2017-Nov-24 21:28N 44°11' E 028°24'0 0.0
2017-Nov-24 20:58N 44°11' E 028°24'0 0.0
2017-Nov-24 20:28N 44°11' E 028°24'0 0.0
2017-Nov-24 19:58N 44°11' E 028°24'0 0.0
2017-Nov-24 19:28N 44°11' E 028°24'0 0.0
2017-Nov-24 18:58N 44°11' E 028°24'0 0.0
2017-Nov-24 18:28N 44°11' E 028°24'0 0.0
2017-Nov-24 17:58N 44°11' E 028°24'0 0.0
2017-Nov-24 17:28N 44°11' E 028°24'0 0.0
2017-Nov-24 16:58N 44°11' E 028°24'0 0.0
2017-Nov-24 16:28N 44°11' E 028°24'0 0.0
2017-Nov-24 15:55N 44°11' E 028°24'0 0.0
2017-Nov-24 15:28N 44°11' E 028°24'0 0.0
2017-Nov-24 14:58N 44°11' E 028°24'0 0.0
2017-Nov-24 14:28N 44°11' E 028°24'0 0.0
2017-Nov-24 13:55N 44°11' E 028°24'0 0.0
2017-Nov-24 13:28N 44°11' E 028°24'0 0.0
2017-Nov-24 12:58N 44°11' E 028°24'0 0.0
2017-Nov-24 12:16N 44°11' E 028°24'0 0.0
2017-Nov-24 11:55N 44°11' E 028°24'0 0.0
2017-Nov-24 11:28N 44°11' E 028°24'0 0.0
2017-Nov-24 10:55N 44°11' E 028°24'0 0.0
2017-Nov-24 10:28N 44°11' E 028°24'0 0.0
2017-Nov-24 09:55N 44°11' E 028°24'0 0.0
2017-Nov-24 09:28N 44°11' E 028°24'0 0.0
2017-Nov-24 08:58N 44°11' E 028°24'0 0.0
2017-Nov-24 08:25N 44°11' E 028°24'0 0.0
2017-Nov-24 07:55N 44°11' E 028°24'0 0.0
2017-Nov-24 07:25N 44°11' E 028°24'0 0.0
2017-Nov-24 06:55N 44°11' E 028°24'0 0.0
2017-Nov-24 06:25N 44°11' E 028°24'0 0.0
2017-Nov-24 05:55N 44°11' E 028°24'0 0.0
2017-Nov-24 05:25N 44°11' E 028°24'0 0.0
2017-Nov-24 04:40N 44°11' E 028°24'0 0.0
2017-Nov-24 04:28N 44°11' E 028°24'0 0.0
2017-Nov-24 03:58N 44°11' E 028°24'0 0.0
2017-Nov-24 03:28N 44°11' E 028°24'0 0.0
2017-Nov-24 02:58N 44°11' E 028°24'0 0.0
2017-Nov-24 02:25N 44°11' E 028°24'0 0.0
2017-Nov-24 01:58N 44°11' E 028°24'0 0.0
2017-Nov-24 01:28N 44°11' E 028°24'0 0.0
2017-Nov-24 00:58N 44°11' E 028°24'0 0.0
2017-Nov-24 00:28N 44°11' E 028°24'0 0.0
2017-Nov-23 23:58N 44°11' E 028°24'0 0.0
2017-Nov-23 23:28N 44°11' E 028°24'0 0.0
2017-Nov-23 22:58N 44°11' E 028°24'0 0.0
2017-Nov-23 22:28N 44°11' E 028°24'0 0.0
2017-Nov-23 21:58N 44°11' E 028°24'0 0.0
2017-Nov-23 21:22N 44°11' E 028°24'0 0.0
2017-Nov-23 20:55N 44°11' E 028°24'0 0.0
2017-Nov-23 20:25N 44°11' E 028°24'0 0.0
2017-Nov-23 19:55N 44°11' E 028°24'0 0.0
2017-Nov-23 19:28N 44°11' E 028°24'0 0.0
2017-Nov-23 18:58N 44°11' E 028°24'0 0.0
2017-Nov-23 18:25N 44°11' E 028°24'0 0.0
2017-Nov-23 17:55N 44°11' E 028°24'0 0.0
2017-Nov-23 17:28N 44°11' E 028°24'0 0.0
2017-Nov-23 16:58N 44°11' E 028°24'0 0.0
2017-Nov-23 16:28N 44°11' E 028°24'0 0.0
2017-Nov-23 15:58N 44°11' E 028°24'0 0.0
2017-Nov-23 15:19N 44°11' E 028°24'0 0.0
2017-Nov-23 14:58N 44°11' E 028°24'0 0.0
2017-Nov-23 14:22N 44°11' E 028°24'0 0.0
2017-Nov-23 13:58N 44°11' E 028°24'0 0.0
2017-Nov-23 13:16N 44°11' E 028°24'0 0.0
2017-Nov-23 12:52N 44°11' E 028°24'0 0.0
2017-Nov-23 12:28N 44°11' E 028°24'0 0.0
2017-Nov-23 11:55N 44°11' E 028°24'0 0.0
2017-Nov-23 11:30N 44°11' E 028°24'0 0.0
2017-Nov-23 11:00N 44°11' E 028°24'0 0.1
2017-Nov-23 10:27N 44°11' E 028°24'0 0.0
2017-Nov-23 09:57N 44°11' E 028°24'0 0.0
2017-Nov-23 09:30N 44°11' E 028°24'0 0.0
2017-Nov-23 08:45N 44°11' E 028°24'0 0.0
2017-Nov-23 08:30N 44°11' E 028°24'0 0.0
2017-Nov-23 07:57N 44°11' E 028°24'0 0.0
2017-Nov-23 07:27N 44°11' E 028°24'0 0.0
2017-Nov-23 06:57N 44°11' E 028°24'0 0.0
2017-Nov-23 06:30N 44°11' E 028°24'0 0.0
2017-Nov-23 05:48N 44°11' E 028°24'0 0.0
2017-Nov-23 05:24N 44°11' E 028°24'0 0.0
2017-Nov-23 04:54N 44°11' E 028°24'0 0.0
2017-Nov-23 04:21N 44°11' E 028°24'0 0.0
2017-Nov-23 03:51N 44°11' E 028°24'0 0.0
2017-Nov-23 03:27N 44°11' E 028°24'0 0.0
2017-Nov-23 02:51N 44°11' E 028°24'0 0.0
2017-Nov-23 02:21N 44°11' E 028°24'0 0.0
2017-Nov-23 01:57N 44°11' E 028°24'0 0.0
2017-Nov-23 01:27N 44°11' E 028°24'0 0.0
2017-Nov-23 00:57N 44°11' E 028°24'0 0.0
2017-Nov-23 00:27N 44°11' E 028°24'0 0.0
2017-Nov-22 23:33N 44°11' E 028°24'0 0.0
2017-Nov-22 23:27N 44°11' E 028°24'0 0.0
2017-Nov-22 22:57N 44°11' E 028°24'0 0.0
2017-Nov-22 22:27N 44°11' E 028°24'0 0.0
2017-Nov-22 21:57N 44°11' E 028°24'0 0.0
2017-Nov-22 21:27N 44°11' E 028°24'0 0.0
2017-Nov-22 20:57N 44°11' E 028°24'0 0.0
2017-Nov-22 20:30N 44°11' E 028°24'0 0.0
2017-Nov-22 19:51N 44°11' E 028°24'0 0.0
2017-Nov-22 19:30N 44°11' E 028°24'  
2017-Nov-20 00:25N 44°07' E 028°38'0 0.0
2017-Nov-19 23:58N 44°07' E 028°38'0 0.0
2017-Nov-19 23:28N 44°07' E 028°38'0 0.0
2017-Nov-19 22:58N 44°07' E 028°38'0 0.0
2017-Nov-19 22:28N 44°07' E 028°38'0 0.0
2017-Nov-19 21:58N 44°07' E 028°38'0 0.0
2017-Nov-19 21:28N 44°07' E 028°38'0 0.0
2017-Nov-19 20:58N 44°07' E 028°38'0 0.0
2017-Nov-19 20:28N 44°07' E 028°38'0 0.0
2017-Nov-19 19:55N 44°07' E 028°38'0 0.0
2017-Nov-19 19:28N 44°07' E 028°38'0 0.0
2017-Nov-19 18:58N 44°07' E 028°38'0 0.0
2017-Nov-19 18:28N 44°07' E 028°38'0 0.0
2017-Nov-19 17:58N 44°07' E 028°38'0 0.0
2017-Nov-19 17:28N 44°07' E 028°38'0 0.0
2017-Nov-19 16:58N 44°07' E 028°38'0 0.0
2017-Nov-19 16:28N 44°07' E 028°38'0 0.0
2017-Nov-19 15:58N 44°07' E 028°38'0 0.0
2017-Nov-19 15:28N 44°07' E 028°38'0 0.0
2017-Nov-19 14:58N 44°07' E 028°38'0 0.0
2017-Nov-19 14:28N 44°07' E 028°38'0 0.0
2017-Nov-19 13:55N 44°07' E 028°38'0 0.0
2017-Nov-19 13:28N 44°07' E 028°38'0 0.0
2017-Nov-19 12:58N 44°07' E 028°38'0 0.0
2017-Nov-19 12:28N 44°07' E 028°38'0 0.0
2017-Nov-19 11:58N 44°07' E 028°38'0 0.0
2017-Nov-19 11:25N 44°07' E 028°39'0 0.0
2017-Nov-19 10:58N 44°07' E 028°38'0 0.0
2017-Nov-19 10:28N 44°07' E 028°38'0 0.0
2017-Nov-19 09:58N 44°07' E 028°38'0 0.0
2017-Nov-19 09:28N 44°07' E 028°38'0 0.0
2017-Nov-19 08:58N 44°07' E 028°38'0 0.0
2017-Nov-19 08:25N 44°07' E 028°38'0 0.0
2017-Nov-19 07:55N 44°07' E 028°38'0 0.0
2017-Nov-19 07:28N 44°07' E 028°38'0 0.0
2017-Nov-19 06:52N 44°07' E 028°38'0 0.0
2017-Nov-19 06:28N 44°07' E 028°38'0 0.0
2017-Nov-19 05:58N 44°07' E 028°38'0 0.0
2017-Nov-19 05:28N 44°07' E 028°38'0 0.0
2017-Nov-19 04:58N 44°07' E 028°38'0 0.0
2017-Nov-19 04:28N 44°07' E 028°38'0 0.0
2017-Nov-19 03:58N 44°07' E 028°38'0 0.0
2017-Nov-19 03:28N 44°07' E 028°38'0 0.0
2017-Nov-19 02:58N 44°07' E 028°38'0 0.0
2017-Nov-19 02:28N 44°07' E 028°39'0 0.0
2017-Nov-19 01:58N 44°07' E 028°38'0 0.0
2017-Nov-19 01:28N 44°07' E 028°39'0 0.0
2017-Nov-19 00:58N 44°07' E 028°38'0 0.0
2017-Nov-19 00:28N 44°07' E 028°38'0 0.0
2017-Nov-18 23:55N 44°07' E 028°38'0 0.0
2017-Nov-18 23:28N 44°07' E 028°38'0 0.0
2017-Nov-18 22:58N 44°07' E 028°38'0 0.0
2017-Nov-18 22:28N 44°07' E 028°38'0 0.0
2017-Nov-18 21:58N 44°07' E 028°38'0 0.0
2017-Nov-18 21:28N 44°07' E 028°38'0 0.0
2017-Nov-18 20:58N 44°07' E 028°38'0 0.0
2017-Nov-18 20:28N 44°07' E 028°38'0 0.0
2017-Nov-18 19:58N 44°07' E 028°38'0 0.0
2017-Nov-18 19:28N 44°07' E 028°38'0 0.0
2017-Nov-18 18:52N 44°07' E 028°38'0 0.0
2017-Nov-18 18:28N 44°07' E 028°38'0 0.0
2017-Nov-18 17:58N 44°07' E 028°38'0 0.0
2017-Nov-18 17:28N 44°07' E 028°38'0 0.0
2017-Nov-18 16:58N 44°07' E 028°38'0 0.0
2017-Nov-18 16:28N 44°07' E 028°38'0 0.0
2017-Nov-18 15:58N 44°07' E 028°38'0 0.0
2017-Nov-18 15:28N 44°07' E 028°38'0 0.0
2017-Nov-18 14:58N 44°07' E 028°38'0 0.0
2017-Nov-18 14:28N 44°07' E 028°38'0 0.0
2017-Nov-18 13:58N 44°07' E 028°38'0 0.0
2017-Nov-18 13:28N 44°07' E 028°38'0 0.0
2017-Nov-18 12:58N 44°07' E 028°38'0 0.0
2017-Nov-18 12:28N 44°07' E 028°38'0 0.0
2017-Nov-18 11:58N 44°07' E 028°38'0 0.0
2017-Nov-18 11:28N 44°07' E 028°38'0 0.0
2017-Nov-18 10:58N 44°07' E 028°38'0 0.0
2017-Nov-18 10:28N 44°07' E 028°38'0 0.0
2017-Nov-18 09:58N 44°07' E 028°38'0 0.0
2017-Nov-18 09:25N 44°07' E 028°38'0 0.0
2017-Nov-18 08:58N 44°07' E 028°38'0 0.0
2017-Nov-18 08:28N 44°07' E 028°38'0 0.0
2017-Nov-18 07:58N 44°07' E 028°38'0 0.0
2017-Nov-18 07:28N 44°07' E 028°38'0 0.0
2017-Nov-18 06:58N 44°07' E 028°38'0 0.0
2017-Nov-18 06:28N 44°07' E 028°38'0 0.0
2017-Nov-18 05:58N 44°07' E 028°38'0 0.0
2017-Nov-18 05:28N 44°07' E 028°38'0 0.0
2017-Nov-18 04:58N 44°07' E 028°38'0 0.0
2017-Nov-18 04:28N 44°07' E 028°38'0 0.0
2017-Nov-18 03:58N 44°07' E 028°38'0 0.0
2017-Nov-18 03:28N 44°07' E 028°38'0 0.0
2017-Nov-18 02:58N 44°07' E 028°38'0 0.0
2017-Nov-18 02:28N 44°07' E 028°38'0 0.0
2017-Nov-18 01:58N 44°07' E 028°38'0 0.0
2017-Nov-18 01:28N 44°07' E 028°38'0 0.0
2017-Nov-18 00:58N 44°07' E 028°38'0 0.0
2017-Nov-18 00:28N 44°07' E 028°38'0 0.0
2017-Nov-17 23:58N 44°07' E 028°38'0 0.0
2017-Nov-17 23:28N 44°07' E 028°38'0 0.0
2017-Nov-17 22:58N 44°07' E 028°38'0 0.0
2017-Nov-17 22:28N 44°07' E 028°38'0 0.0
2017-Nov-17 21:58N 44°07' E 028°38'0 0.0
2017-Nov-17 21:28N 44°07' E 028°38'0 0.0
2017-Nov-17 20:58N 44°07' E 028°38'0 0.0
2017-Nov-17 20:28N 44°07' E 028°38'0 0.0
2017-Nov-17 19:58N 44°07' E 028°38'0 0.0
2017-Nov-17 19:28N 44°07' E 028°38'0 0.0
2017-Nov-17 18:58N 44°07' E 028°38'0 0.0
2017-Nov-17 18:28N 44°07' E 028°38'0 0.0
2017-Nov-17 17:58N 44°07' E 028°38'0 0.0
2017-Nov-17 17:28N 44°07' E 028°38'0 0.0
2017-Nov-17 16:58N 44°07' E 028°38'0 0.0
2017-Nov-17 16:28N 44°07' E 028°38'0 0.0
2017-Nov-17 15:58N 44°07' E 028°38'0 0.0
2017-Nov-17 15:28N 44°07' E 028°38'0 0.0
2017-Nov-17 14:58N 44°07' E 028°38'0 0.0
2017-Nov-17 14:28N 44°07' E 028°38'0 0.0
2017-Nov-17 13:58N 44°07' E 028°38'0 0.0
2017-Nov-17 13:28N 44°07' E 028°38'0 0.0
2017-Nov-17 12:58N 44°07' E 028°38'0 0.0
2017-Nov-17 12:28N 44°07' E 028°38'0 0.0
2017-Nov-17 11:58N 44°07' E 028°38'0 0.0
2017-Nov-17 11:28N 44°07' E 028°38'0 0.0
2017-Nov-17 10:58N 44°07' E 028°38'0 0.0
2017-Nov-17 10:28N 44°07' E 028°38'0 0.0
2017-Nov-17 09:58N 44°07' E 028°38'0 0.0
2017-Nov-17 09:28N 44°07' E 028°38'0 0.0
2017-Nov-17 08:58N 44°07' E 028°38'0 0.0
2017-Nov-17 08:28N 44°07' E 028°38'0 0.0
2017-Nov-17 07:58N 44°07' E 028°38'0 0.0
2017-Nov-17 07:28N 44°07' E 028°38'0 0.0
2017-Nov-17 06:58N 44°07' E 028°38'0 0.0
2017-Nov-17 06:25N 44°07' E 028°38'0 0.0
2017-Nov-17 05:58N 44°07' E 028°38'0 0.0
2017-Nov-17 05:28N 44°07' E 028°38'0 0.0
2017-Nov-17 04:58N 44°07' E 028°38'0 0.0
2017-Nov-17 04:28N 44°07' E 028°38'0 0.0
2017-Nov-17 03:58N 44°07' E 028°38'0 0.3
2017-Nov-17 03:30N 44°07' E 028°39'1 1.1
2017-Nov-17 03:00N 44°07' E 028°39'1 2.4
2017-Nov-17 02:30N 44°06' E 028°39'1 2.4
2017-Nov-17 02:00N 44°06' E 028°37'0 0.0
2017-Nov-17 01:30N 44°06' E 028°37'0 0.4
2017-Nov-17 01:00N 44°06' E 028°37'0 0.5
2017-Nov-17 00:30N 44°06' E 028°36'2 4.1
2017-Nov-17 00:00N 44°06' E 028°34'5 4.4
2017-Nov-16 22:53N 44°07' E 028°27'2 4.6
2017-Nov-16 22:25N 44°09' E 028°26'2 4.8
2017-Nov-16 22:00N 44°10' E 028°24'2 4.7
2017-Nov-16 21:30N 44°13' E 028°23'2 4.7
2017-Nov-16 21:00N 44°15' E 028°21'2 4.4
2017-Nov-16 20:30N 44°15' E 028°18'2 4.7
2017-Nov-16 20:00N 44°15' E 028°15'2 4.7
2017-Nov-16 19:30N 44°16' E 028°12'2 4.8
2017-Nov-16 19:00N 44°16' E 028°08'2 4.7
2017-Nov-16 18:30N 44°17' E 028°05'  
Track history (hours):
 
Tides and Currents Weather Stations Pressure Air Temp Water Temp Dewpoint Dewpoint Depression Visibility Wind Speed Wind Dir Waves Ship Positions

Chelyabinsk

Last reported at 2017-Nov-25 20:32 UTC. Time now 2018-Feb-23 18:36 UTC.
Position N 44°23' E 028°02'.
Warning: this ship's position is months out of date.

Length 57 m; draft 1.7 m.

Type: Ship. MMSI: 272028900.

Date/timePositionNaut miles runAvg speedWind from/ knotsBaromVisibWave heightAir tempDewpointWater temp
2017-Nov-25 20:32N 44°23' E 028°02'4 2.6
2017-Nov-25 19:01N 44°19' E 028°03'0 0.8
2017-Nov-25 18:54N 44°19' E 028°03'1 3.6
2017-Nov-25 18:30N 44°17' E 028°04'3 5.3
2017-Nov-25 18:00N 44°16' E 028°07'3 5.4
2017-Nov-25 17:30N 44°16' E 028°11'3 5.3
2017-Nov-25 17:01N 44°15' E 028°15'3 5.3
2017-Nov-25 16:31N 44°15' E 028°18'2 4.6
2017-Nov-25 16:01N 44°14' E 028°21'3 5.3
2017-Nov-25 15:30N 44°12' E 028°23'1 2.3
2017-Nov-25 15:00N 44°11' E 028°24'0 0.0
2017-Nov-25 14:30N 44°11' E 028°24'0 0.7
2017-Nov-25 14:00N 44°11' E 028°24'0 0.1
2017-Nov-25 13:30N 44°11' E 028°24'1 1.2
2017-Nov-25 13:00N 44°10' E 028°24'4 6.3
2017-Nov-25 12:25N 44°07' E 028°27'3 5.9
2017-Nov-25 11:57N 44°06' E 028°30'3 6.4
2017-Nov-25 11:31N 44°06' E 028°34'2 4.4
2017-Nov-25 11:00N 44°06' E 028°37'0 0.6
2017-Nov-25 10:31N 44°06' E 028°38'2 3.2
2017-Nov-25 09:59N 44°07' E 028°39'0 0.0
2017-Nov-25 09:30N 44°07' E 028°39'0 0.0
2017-Nov-25 09:00N 44°07' E 028°39'0 0.0
2017-Nov-25 08:30N 44°07' E 028°39'0 0.0
2017-Nov-25 08:00N 44°07' E 028°39'0 0.0
2017-Nov-25 07:30N 44°07' E 028°39'1 1.6
2017-Nov-25 07:00N 44°07' E 028°39'1 2.5
2017-Nov-25 06:30N 44°06' E 028°37'1 1.1
2017-Nov-25 06:00N 44°06' E 028°37'0 0.0
2017-Nov-25 05:30N 44°06' E 028°37'1 2.5
2017-Nov-25 05:00N 44°06' E 028°35'4 6.6
2017-Nov-25 04:24N 44°06' E 028°29'4 6.2
2017-Nov-25 03:45N 44°09' E 028°26'1 6.3
2017-Nov-25 03:30N 44°10' E 028°24'1 1.0
2017-Nov-25 02:58N 44°11' E 028°24'0 0.0
2017-Nov-25 02:28N 44°11' E 028°24'0 0.0
2017-Nov-25 01:58N 44°11' E 028°24'0 0.0
2017-Nov-25 01:28N 44°11' E 028°24'0 0.0
2017-Nov-25 00:58N 44°11' E 028°24'0 0.0
2017-Nov-25 00:28N 44°11' E 028°24'0 0.0
2017-Nov-24 23:58N 44°11' E 028°24'0 0.0
2017-Nov-24 23:28N 44°11' E 028°24'0 0.0
2017-Nov-24 22:58N 44°11' E 028°24'0 0.0
2017-Nov-24 22:28N 44°11' E 028°24'0 0.0
2017-Nov-24 21:58N 44°11' E 028°24'0 0.0
2017-Nov-24 21:28N 44°11' E 028°24'0 0.0
2017-Nov-24 20:58N 44°11' E 028°24'0 0.0
2017-Nov-24 20:28N 44°11' E 028°24'0 0.0
2017-Nov-24 19:58N 44°11' E 028°24'0 0.0
2017-Nov-24 19:28N 44°11' E 028°24'0 0.0
2017-Nov-24 18:58N 44°11' E 028°24'0 0.0
2017-Nov-24 18:28N 44°11' E 028°24'0 0.0
2017-Nov-24 17:58N 44°11' E 028°24'0 0.0
2017-Nov-24 17:28N 44°11' E 028°24'0 0.0
2017-Nov-24 16:58N 44°11' E 028°24'0 0.0
2017-Nov-24 16:28N 44°11' E 028°24'0 0.0
2017-Nov-24 15:55N 44°11' E 028°24'0 0.0
2017-Nov-24 15:28N 44°11' E 028°24'0 0.0
2017-Nov-24 14:58N 44°11' E 028°24'0 0.0
2017-Nov-24 14:28N 44°11' E 028°24'0 0.0
2017-Nov-24 13:55N 44°11' E 028°24'0 0.0
2017-Nov-24 13:28N 44°11' E 028°24'0 0.0
2017-Nov-24 12:58N 44°11' E 028°24'0 0.0
2017-Nov-24 12:16N 44°11' E 028°24'0 0.0
2017-Nov-24 11:55N 44°11' E 028°24'0 0.0
2017-Nov-24 11:28N 44°11' E 028°24'0 0.0
2017-Nov-24 10:55N 44°11' E 028°24'0 0.0
2017-Nov-24 10:28N 44°11' E 028°24'0 0.0
2017-Nov-24 09:55N 44°11' E 028°24'0 0.0
2017-Nov-24 09:28N 44°11' E 028°24'0 0.0
2017-Nov-24 08:58N 44°11' E 028°24'0 0.0
2017-Nov-24 08:25N 44°11' E 028°24'0 0.0
2017-Nov-24 07:55N 44°11' E 028°24'0 0.0
2017-Nov-24 07:25N 44°11' E 028°24'0 0.0
2017-Nov-24 06:55N 44°11' E 028°24'0 0.0
2017-Nov-24 06:25N 44°11' E 028°24'0 0.0
2017-Nov-24 05:55N 44°11' E 028°24'0 0.0
2017-Nov-24 05:25N 44°11' E 028°24'0 0.0
2017-Nov-24 04:40N 44°11' E 028°24'0 0.0
2017-Nov-24 04:28N 44°11' E 028°24'0 0.0
2017-Nov-24 03:58N 44°11' E 028°24'0 0.0
2017-Nov-24 03:28N 44°11' E 028°24'0 0.0
2017-Nov-24 02:58N 44°11' E 028°24'0 0.0
2017-Nov-24 02:25N 44°11' E 028°24'0 0.0
2017-Nov-24 01:58N 44°11' E 028°24'0 0.0
2017-Nov-24 01:28N 44°11' E 028°24'0 0.0
2017-Nov-24 00:58N 44°11' E 028°24'0 0.0
2017-Nov-24 00:28N 44°11' E 028°24'0 0.0
2017-Nov-23 23:58N 44°11' E 028°24'0 0.0
2017-Nov-23 23:28N 44°11' E 028°24'0 0.0
2017-Nov-23 22:58N 44°11' E 028°24'0 0.0
2017-Nov-23 22:28N 44°11' E 028°24'0 0.0
2017-Nov-23 21:58N 44°11' E 028°24'0 0.0
2017-Nov-23 21:22N 44°11' E 028°24'0 0.0
2017-Nov-23 20:55N 44°11' E 028°24'0 0.0
2017-Nov-23 20:25N 44°11' E 028°24'0 0.0
2017-Nov-23 19:55N 44°11' E 028°24'0 0.0
2017-Nov-23 19:28N 44°11' E 028°24'0 0.0
2017-Nov-23 18:58N 44°11' E 028°24'0 0.0
2017-Nov-23 18:25N 44°11' E 028°24'0 0.0
2017-Nov-23 17:55N 44°11' E 028°24'0 0.0
2017-Nov-23 17:28N 44°11' E 028°24'0 0.0
2017-Nov-23 16:58N 44°11' E 028°24'0 0.0
2017-Nov-23 16:28N 44°11' E 028°24'0 0.0
2017-Nov-23 15:58N 44°11' E 028°24'0 0.0
2017-Nov-23 15:19N 44°11' E 028°24'0 0.0
2017-Nov-23 14:58N 44°11' E 028°24'0 0.0
2017-Nov-23 14:22N 44°11' E 028°24'0 0.0
2017-Nov-23 13:58N 44°11' E 028°24'0 0.0
2017-Nov-23 13:16N 44°11' E 028°24'0 0.0
2017-Nov-23 12:52N 44°11' E 028°24'0 0.0
2017-Nov-23 12:28N 44°11' E 028°24'0 0.0
2017-Nov-23 11:55N 44°11' E 028°24'0 0.0
2017-Nov-23 11:30N 44°11' E 028°24'0 0.0
2017-Nov-23 11:00N 44°11' E 028°24'0 0.1
2017-Nov-23 10:27N 44°11' E 028°24'0 0.0
2017-Nov-23 09:57N 44°11' E 028°24'0 0.0
2017-Nov-23 09:30N 44°11' E 028°24'0 0.0
2017-Nov-23 08:45N 44°11' E 028°24'0 0.0
2017-Nov-23 08:30N 44°11' E 028°24'0 0.0
2017-Nov-23 07:57N 44°11' E 028°24'0 0.0
2017-Nov-23 07:27N 44°11' E 028°24'0 0.0
2017-Nov-23 06:57N 44°11' E 028°24'0 0.0
2017-Nov-23 06:30N 44°11' E 028°24'0 0.0
2017-Nov-23 05:48N 44°11' E 028°24'0 0.0
2017-Nov-23 05:24N 44°11' E 028°24'0 0.0
2017-Nov-23 04:54N 44°11' E 028°24'0 0.0
2017-Nov-23 04:21N 44°11' E 028°24'0 0.0
2017-Nov-23 03:51N 44°11' E 028°24'0 0.0
2017-Nov-23 03:27N 44°11' E 028°24'0 0.0
2017-Nov-23 02:51N 44°11' E 028°24'0 0.0
2017-Nov-23 02:21N 44°11' E 028°24'0 0.0
2017-Nov-23 01:57N 44°11' E 028°24'0 0.0
2017-Nov-23 01:27N 44°11' E 028°24'0 0.0
2017-Nov-23 00:57N 44°11' E 028°24'0 0.0
2017-Nov-23 00:27N 44°11' E 028°24'0 0.0
2017-Nov-22 23:33N 44°11' E 028°24'0 0.0
2017-Nov-22 23:27N 44°11' E 028°24'0 0.0
2017-Nov-22 22:57N 44°11' E 028°24'0 0.0
2017-Nov-22 22:27N 44°11' E 028°24'0 0.0
2017-Nov-22 21:57N 44°11' E 028°24'0 0.0
2017-Nov-22 21:27N 44°11' E 028°24'0 0.0
2017-Nov-22 20:57N 44°11' E 028°24'0 0.0
2017-Nov-22 20:30N 44°11' E 028°24'0 0.0
2017-Nov-22 19:51N 44°11' E 028°24'0 0.0
2017-Nov-22 19:30N 44°11' E 028°24'  
2017-Nov-20 00:25N 44°07' E 028°38'0 0.0
2017-Nov-19 23:58N 44°07' E 028°38'0 0.0
2017-Nov-19 23:28N 44°07' E 028°38'0 0.0
2017-Nov-19 22:58N 44°07' E 028°38'0 0.0
2017-Nov-19 22:28N 44°07' E 028°38'0 0.0
2017-Nov-19 21:58N 44°07' E 028°38'0 0.0
2017-Nov-19 21:28N 44°07' E 028°38'0 0.0
2017-Nov-19 20:58N 44°07' E 028°38'0 0.0
2017-Nov-19 20:28N 44°07' E 028°38'0 0.0
2017-Nov-19 19:55N 44°07' E 028°38'0 0.0
2017-Nov-19 19:28N 44°07' E 028°38'0 0.0
2017-Nov-19 18:58N 44°07' E 028°38'0 0.0
2017-Nov-19 18:28N 44°07' E 028°38'0 0.0
2017-Nov-19 17:58N 44°07' E 028°38'0 0.0
2017-Nov-19 17:28N 44°07' E 028°38'0 0.0
2017-Nov-19 16:58N 44°07' E 028°38'0 0.0
2017-Nov-19 16:28N 44°07' E 028°38'0 0.0
2017-Nov-19 15:58N 44°07' E 028°38'0 0.0
2017-Nov-19 15:28N 44°07' E 028°38'0 0.0
2017-Nov-19 14:58N 44°07' E 028°38'0 0.0
2017-Nov-19 14:28N 44°07' E 028°38'0 0.0
2017-Nov-19 13:55N 44°07' E 028°38'0 0.0
2017-Nov-19 13:28N 44°07' E 028°38'0 0.0
2017-Nov-19 12:58N 44°07' E 028°38'0 0.0
2017-Nov-19 12:28N 44°07' E 028°38'0 0.0
2017-Nov-19 11:58N 44°07' E 028°38'0 0.0
2017-Nov-19 11:25N 44°07' E 028°39'0 0.0
2017-Nov-19 10:58N 44°07' E 028°38'0 0.0
2017-Nov-19 10:28N 44°07' E 028°38'0 0.0
2017-Nov-19 09:58N 44°07' E 028°38'0 0.0
2017-Nov-19 09:28N 44°07' E 028°38'0 0.0
2017-Nov-19 08:58N 44°07' E 028°38'0 0.0
2017-Nov-19 08:25N 44°07' E 028°38'0 0.0
2017-Nov-19 07:55N 44°07' E 028°38'0 0.0
2017-Nov-19 07:28N 44°07' E 028°38'0 0.0
2017-Nov-19 06:52N 44°07' E 028°38'0 0.0
2017-Nov-19 06:28N 44°07' E 028°38'0 0.0
2017-Nov-19 05:58N 44°07' E 028°38'0 0.0
2017-Nov-19 05:28N 44°07' E 028°38'0 0.0
2017-Nov-19 04:58N 44°07' E 028°38'0 0.0
2017-Nov-19 04:28N 44°07' E 028°38'0 0.0
2017-Nov-19 03:58N 44°07' E 028°38'0 0.0
2017-Nov-19 03:28N 44°07' E 028°38'0 0.0
2017-Nov-19 02:58N 44°07' E 028°38'0 0.0
2017-Nov-19 02:28N 44°07' E 028°39'0 0.0
2017-Nov-19 01:58N 44°07' E 028°38'0 0.0
2017-Nov-19 01:28N 44°07' E 028°39'0 0.0
2017-Nov-19 00:58N 44°07' E 028°38'0 0.0
2017-Nov-19 00:28N 44°07' E 028°38'0 0.0
2017-Nov-18 23:55N 44°07' E 028°38'0 0.0
2017-Nov-18 23:28N 44°07' E 028°38'0 0.0
2017-Nov-18 22:58N 44°07' E 028°38'0 0.0
2017-Nov-18 22:28N 44°07' E 028°38'0 0.0
2017-Nov-18 21:58N 44°07' E 028°38'0 0.0
2017-Nov-18 21:28N 44°07' E 028°38'0 0.0
2017-Nov-18 20:58N 44°07' E 028°38'0 0.0
2017-Nov-18 20:28N 44°07' E 028°38'0 0.0
2017-Nov-18 19:58N 44°07' E 028°38'0 0.0
2017-Nov-18 19:28N 44°07' E 028°38'0 0.0
2017-Nov-18 18:52N 44°07' E 028°38'0 0.0
2017-Nov-18 18:28N 44°07' E 028°38'0 0.0
2017-Nov-18 17:58N 44°07' E 028°38'0 0.0
2017-Nov-18 17:28N 44°07' E 028°38'0 0.0
2017-Nov-18 16:58N 44°07' E 028°38'0 0.0
2017-Nov-18 16:28N 44°07' E 028°38'0 0.0
2017-Nov-18 15:58N 44°07' E 028°38'0 0.0
2017-Nov-18 15:28N 44°07' E 028°38'0 0.0
2017-Nov-18 14:58N 44°07' E 028°38'0 0.0
2017-Nov-18 14:28N 44°07' E 028°38'0 0.0
2017-Nov-18 13:58N 44°07' E 028°38'0 0.0
2017-Nov-18 13:28N 44°07' E 028°38'0 0.0
2017-Nov-18 12:58N 44°07' E 028°38'0 0.0
2017-Nov-18 12:28N 44°07' E 028°38'0 0.0
2017-Nov-18 11:58N 44°07' E 028°38'0 0.0
2017-Nov-18 11:28N 44°07' E 028°38'0 0.0
2017-Nov-18 10:58N 44°07' E 028°38'0 0.0
2017-Nov-18 10:28N 44°07' E 028°38'0 0.0
2017-Nov-18 09:58N 44°07' E 028°38'0 0.0
2017-Nov-18 09:25N 44°07' E 028°38'0 0.0
2017-Nov-18 08:58N 44°07' E 028°38'0 0.0
2017-Nov-18 08:28N 44°07' E 028°38'0 0.0
2017-Nov-18 07:58N 44°07' E 028°38'0 0.0
2017-Nov-18 07:28N 44°07' E 028°38'0 0.0
2017-Nov-18 06:58N 44°07' E 028°38'0 0.0
2017-Nov-18 06:28N 44°07' E 028°38'0 0.0
2017-Nov-18 05:58N 44°07' E 028°38'0 0.0
2017-Nov-18 05:28N 44°07' E 028°38'0 0.0
2017-Nov-18 04:58N 44°07' E 028°38'0 0.0
2017-Nov-18 04:28N 44°07' E 028°38'0 0.0
2017-Nov-18 03:58N 44°07' E 028°38'0 0.0
2017-Nov-18 03:28N 44°07' E 028°38'0 0.0
2017-Nov-18 02:58N 44°07' E 028°38'0 0.0
2017-Nov-18 02:28N 44°07' E 028°38'0 0.0
2017-Nov-18 01:58N 44°07' E 028°38'0 0.0
2017-Nov-18 01:28N 44°07' E 028°38'0 0.0
2017-Nov-18 00:58N 44°07' E 028°38'0 0.0
2017-Nov-18 00:28N 44°07' E 028°38'0 0.0
2017-Nov-17 23:58N 44°07' E 028°38'0 0.0
2017-Nov-17 23:28N 44°07' E 028°38'0 0.0
2017-Nov-17 22:58N 44°07' E 028°38'0 0.0
2017-Nov-17 22:28N 44°07' E 028°38'0 0.0
2017-Nov-17 21:58N 44°07' E 028°38'0 0.0
2017-Nov-17 21:28N 44°07' E 028°38'0 0.0
2017-Nov-17 20:58N 44°07' E 028°38'0 0.0
2017-Nov-17 20:28N 44°07' E 028°38'0 0.0
2017-Nov-17 19:58N 44°07' E 028°38'0 0.0
2017-Nov-17 19:28N 44°07' E 028°38'0 0.0
2017-Nov-17 18:58N 44°07' E 028°38'0 0.0
2017-Nov-17 18:28N 44°07' E 028°38'0 0.0
2017-Nov-17 17:58N 44°07' E 028°38'0 0.0
2017-Nov-17 17:28N 44°07' E 028°38'0 0.0
2017-Nov-17 16:58N 44°07' E 028°38'0 0.0
2017-Nov-17 16:28N 44°07' E 028°38'0 0.0
2017-Nov-17 15:58N 44°07' E 028°38'0 0.0
2017-Nov-17 15:28N 44°07' E 028°38'0 0.0
2017-Nov-17 14:58N 44°07' E 028°38'0 0.0
2017-Nov-17 14:28N 44°07' E 028°38'0 0.0
2017-Nov-17 13:58N 44°07' E 028°38'0 0.0
2017-Nov-17 13:28N 44°07' E 028°38'0 0.0
2017-Nov-17 12:58N 44°07' E 028°38'0 0.0
2017-Nov-17 12:28N 44°07' E 028°38'0 0.0
2017-Nov-17 11:58N 44°07' E 028°38'0 0.0
2017-Nov-17 11:28N 44°07' E 028°38'0 0.0
2017-Nov-17 10:58N 44°07' E 028°38'0 0.0
2017-Nov-17 10:28N 44°07' E 028°38'0 0.0
2017-Nov-17 09:58N 44°07' E 028°38'0 0.0
2017-Nov-17 09:28N 44°07' E 028°38'0 0.0
2017-Nov-17 08:58N 44°07' E 028°38'0 0.0
2017-Nov-17 08:28N 44°07' E 028°38'0 0.0
2017-Nov-17 07:58N 44°07' E 028°38'0 0.0
2017-Nov-17 07:28N 44°07' E 028°38'0 0.0
2017-Nov-17 06:58N 44°07' E 028°38'0 0.0
2017-Nov-17 06:25N 44°07' E 028°38'0 0.0
2017-Nov-17 05:58N 44°07' E 028°38'0 0.0
2017-Nov-17 05:28N 44°07' E 028°38'0 0.0
2017-Nov-17 04:58N 44°07' E 028°38'0 0.0
2017-Nov-17 04:28N 44°07' E 028°38'0 0.0
2017-Nov-17 03:58N 44°07' E 028°38'0 0.3
2017-Nov-17 03:30N 44°07' E 028°39'1 1.1
2017-Nov-17 03:00N 44°07' E 028°39'1 2.4
2017-Nov-17 02:30N 44°06' E 028°39'1 2.4
2017-Nov-17 02:00N 44°06' E 028°37'0 0.0
2017-Nov-17 01:30N 44°06' E 028°37'0 0.4
2017-Nov-17 01:00N 44°06' E 028°37'0 0.5
2017-Nov-17 00:30N 44°06' E 028°36'2 4.1
2017-Nov-17 00:00N 44°06' E 028°34'5 4.4
2017-Nov-16 22:53N 44°07' E 028°27'2 4.6
2017-Nov-16 22:25N 44°09' E 028°26'2 4.8
2017-Nov-16 22:00N 44°10' E 028°24'2 4.7
2017-Nov-16 21:30N 44°13' E 028°23'2 4.7
2017-Nov-16 21:00N 44°15' E 028°21'2 4.4
2017-Nov-16 20:30N 44°15' E 028°18'2 4.7
2017-Nov-16 20:00N 44°15' E 028°15'2 4.7
2017-Nov-16 19:30N 44°16' E 028°12'2 4.8
2017-Nov-16 19:00N 44°16' E 028°08'2 4.7
2017-Nov-16 18:30N 44°17' E 028°05'  

Dump ship's entire track history